X  CloseMetar Aviation Weather Data     EKYT Aalborg

Temperature

5°C Temperature

4°C Dewpoint

93% Humidity



Wind

24 KM/H

15 MPH

 7 M/S

13 KTS



210°
South South
West
Current Conditions

Mostly Scattered Clouds Mostly Scattered Clouds
Pressure 1009.92 (hPa) - 29.82 (in)
Visibility 3.7 (mi) - 6 (km)
Airport
Airport-code EKYT

Location Aalborg 55 (km)

Metar:
EKYT 261720Z 21013KT 6000 SCT007 BKN008 05/04 Q1010

Time: 26-01-2020 18:20